Time;durP1;ratioP1;P1;durP2;ratioP2;P2;SDS_P1;SDS_P2;PMS_P1;PMS_P2;Temp;Humidity;BMP_temperature;BMP_pressure;BME280_temperature;BME280_humidity;BME280_pressure;Samples;Min_cycle;Max_cycle;Signal;HPM_P1;HPM_P2
2023/11/22 00:00:52;;;;;;;10.20;6.93;;;;;;;7.83;51.27;102185.88;5055132;28;20488;-85
2023/11/22 00:03:20;;;;;;;11.13;7.25;;;;;;;7.81;51.48;102179.59;5056891;28;20032;-85
2023/11/22 00:05:50;;;;;;;9.88;6.82;;;;;;;7.82;51.48;102189.56;5059945;28;20072;-86
2023/11/22 00:08:20;;;;;;;8.63;6.38;;;;;;;7.81;51.45;102198.69;5068227;28;20055;-84
2023/11/22 00:10:48;;;;;;;9.40;6.57;;;;;;;7.79;51.27;102184.25;5070942;28;20045;-85
2023/11/22 00:13:16;;;;;;;10.32;6.55;;;;;;;7.78;51.71;102179.75;5079626;28;20059;-84
2023/11/22 00:15:44;;;;;;;9.15;6.57;;;;;;;7.80;51.83;102185.13;5053080;28;20098;-84
2023/11/22 00:18:12;;;;;;;9.13;6.30;;;;;;;7.78;51.66;102177.03;5051075;28;20543;-84
2023/11/22 00:20:40;;;;;;;8.60;6.25;;;;;;;7.80;51.77;102186.03;5071707;28;20036;-84
2023/11/22 00:23:09;;;;;;;9.50;6.50;;;;;;;7.78;51.50;102177.03;5079019;28;20075;-86
2023/11/22 00:25:38;;;;;;;9.60;6.45;;;;;;;7.78;51.65;102184.34;5071942;28;20137;-85
2023/11/22 00:28:06;;;;;;;10.25;6.63;;;;;;;7.78;51.58;102185.22;5074194;28;20044;-86
2023/11/22 00:30:34;;;;;;;9.35;6.30;;;;;;;7.77;51.72;102182.56;5072426;28;20045;-85
2023/11/22 00:33:02;;;;;;;8.25;6.28;;;;;;;7.75;51.39;102190.84;5055158;28;20043;-85
2023/11/22 00:35:30;;;;;;;8.82;5.93;;;;;;;7.76;51.32;102186.28;5057615;28;20064;-85
2023/11/22 00:37:59;;;;;;;9.02;6.05;;;;;;;7.74;51.05;102186.38;5078520;28;20063;-85
2023/11/22 00:40:28;;;;;;;8.98;6.00;;;;;;;7.75;51.24;102195.41;5060195;28;20037;-84
2023/11/22 00:42:57;;;;;;;8.68;5.82;;;;;;;7.72;50.92;102199.19;5065269;28;20114;-86
2023/11/22 00:45:26;;;;;;;9.60;6.43;;;;;;;7.69;51.21;102187.56;5052997;28;20049;-86
2023/11/22 00:47:54;;;;;;;10.27;6.72;;;;;;;7.68;51.08;102186.72;5054504;28;20044;-85
2023/11/22 00:50:22;;;;;;;9.55;6.10;;;;;;;7.67;51.20;102193.13;5072412;28;20127;-85
2023/11/22 00:52:50;;;;;;;8.23;6.15;;;;;;;7.65;51.28;102189.59;5074208;28;20047;-85
2023/11/22 00:55:18;;;;;;;7.97;6.15;;;;;;;7.64;51.04;102198.72;5053705;28;20041;-85
2023/11/22 00:57:48;;;;;;;10.40;6.43;;;;;;;7.63;51.30;102191.50;5066372;28;20492;-86
2023/11/22 01:00:16;;;;;;;8.23;5.60;;;;;;;7.63;51.13;102205.13;5055682;28;20045;-85
2023/11/22 01:02:44;;;;;;;9.48;6.57;;;;;;;7.62;51.13;102202.47;5079323;28;20425;-86
2023/11/22 01:05:15;;;;;;;8.98;5.90;;;;;;;7.62;51.43;102205.22;5090059;28;20492;-86
2023/11/22 01:07:43;;;;;;;9.55;6.05;;;;;;;7.62;50.99;102205.22;5069351;28;20044;-85
2023/11/22 01:10:11;;;;;;;8.30;5.63;;;;;;;7.60;50.89;102202.56;5076388;28;20722;-85
2023/11/22 01:12:39;;;;;;;8.93;5.93;;;;;;;7.60;50.93;102208.00;5057284;28;20052;-86
2023/11/22 01:15:10;;;;;;;9.20;5.97;;;;;;;7.63;51.04;102220.59;5056112;28;20079;-85
2023/11/22 01:17:38;;;;;;;8.10;5.90;;;;;;;7.59;51.23;102217.16;5070010;28;20063;-85
2023/11/22 01:20:10;;;;;;;10.57;6.00;;;;;;;7.61;51.09;102219.78;5071161;28;20493;-85
2023/11/22 01:22:38;;;;;;;9.68;5.78;;;;;;;7.57;51.16;102227.25;5076980;28;20041;-85
2023/11/22 01:25:07;;;;;;;8.50;5.55;;;;;;;7.58;50.72;102224.47;5073159;28;20036;-85
2023/11/22 01:27:35;;;;;;;7.20;5.13;;;;;;;7.55;50.89;102226.47;5074282;28;20646;-84
2023/11/22 01:30:07;;;;;;;8.63;5.63;;;;;;;7.56;50.68;102228.22;5056324;28;20102;-84
2023/11/22 01:32:36;;;;;;;8.45;5.70;;;;;;;7.54;50.89;102231.03;5075607;28;20485;-84
2023/11/22 01:35:06;;;;;;;8.73;5.70;;;;;;;7.52;50.64;102227.50;5074113;28;20041;-84
2023/11/22 01:37:34;;;;;;;6.78;4.78;;;;;;;7.51;50.55;102233.03;5074052;28;20047;-86
2023/11/22 01:40:03;;;;;;;7.60;5.18;;;;;;;7.50;50.71;102236.72;5069859;28;20102;-84
2023/11/22 01:42:31;;;;;;;8.05;5.13;;;;;;;7.48;50.79;102234.09;5072156;28;20140;-86
2023/11/22 01:45:01;;;;;;;6.55;4.72;;;;;;;7.46;50.74;102244.16;5054334;28;20052;-84
2023/11/22 01:47:30;;;;;;;8.40;5.25;;;;;;;7.44;50.62;102243.34;5067377;28;20527;-84
2023/11/22 01:49:59;;;;;;;8.45;5.35;;;;;;;7.45;50.65;102260.59;5052800;28;20871;-85
2023/11/22 01:52:28;;;;;;;8.30;5.10;;;;;;;7.42;50.41;102260.75;5071344;28;20037;-84
2023/11/22 01:54:56;;;;;;;8.07;5.10;;;;;;;7.40;50.91;102265.41;5072498;28;20048;-85
2023/11/22 01:57:25;;;;;;;7.18;4.65;;;;;;;7.39;50.66;102266.34;5040261;28;20045;-85
2023/11/22 01:59:53;;;;;;;6.88;4.78;;;;;;;7.38;50.44;102260.03;5045268;28;20040;-85
2023/11/22 02:02:21;;;;;;;7.80;5.00;;;;;;;7.36;50.60;102272.84;5069407;28;20044;-84
2023/11/22 02:04:50;;;;;;;9.35;5.75;;;;;;;7.34;50.83;102274.78;5070655;28;20119;-85
2023/11/22 02:07:20;;;;;;;7.88;5.43;;;;;;;7.35;50.51;102284.72;5072122;28;20040;-84
2023/11/22 02:09:49;;;;;;;7.28;4.95;;;;;;;7.30;50.70;102286.78;5069433;28;20044;-84
2023/11/22 02:12:17;;;;;;;8.15;5.00;;;;;;;7.29;50.76;102297.75;5073643;28;20048;-85
2023/11/22 02:14:45;;;;;;;8.27;5.35;;;;;;;7.28;50.23;102301.44;5072955;28;20119;-84
2023/11/22 02:17:14;;;;;;;6.68;4.63;;;;;;;7.28;50.76;102307.75;5058055;28;20136;-84
2023/11/22 02:19:42;;;;;;;6.82;4.93;;;;;;;7.26;50.36;102319.72;5060766;28;20040;-85
2023/11/22 02:22:16;;;;;;;6.47;4.35;;;;;;;7.23;50.41;102314.41;5071730;28;20041;-84
2023/11/22 02:24:46;;;;;;;7.00;4.82;;;;;;;7.24;50.40;102305.28;5056278;28;20047;-84
2023/11/22 02:27:14;;;;;;;7.68;4.57;;;;;;;7.24;50.79;102311.59;5056739;28;20041;-85
2023/11/22 02:29:42;;;;;;;6.32;4.45;;;;;;;7.22;50.42;102299.91;5073960;28;20044;-85
2023/11/22 02:32:11;;;;;;;7.53;4.88;;;;;;;7.21;50.29;102298.13;5070575;28;20101;-83
2023/11/22 02:34:39;;;;;;;7.32;4.70;;;;;;;7.19;50.72;102295.50;5071898;28;20048;-85
2023/11/22 02:37:08;;;;;;;7.45;4.72;;;;;;;7.18;50.43;102290.16;5069830;28;20064;-84
2023/11/22 02:39:45;;;;;;;6.82;4.53;;;;;;;7.22;50.04;102299.03;5051192;28;20626;-86
2023/11/22 02:42:14;;;;;;;6.85;4.57;;;;;;;7.16;50.58;102282.06;5090555;28;20055;-84
2023/11/22 02:44:42;;;;;;;7.15;4.35;;;;;;;7.14;50.18;102291.25;5092109;28;20056;-84
2023/11/22 02:47:11;;;;;;;6.78;4.43;;;;;;;7.15;50.43;102293.00;5068315;28;20439;-86
2023/11/22 02:49:39;;;;;;;7.00;4.43;;;;;;;7.14;50.55;102288.53;5073605;28;20037;-85
2023/11/22 02:52:07;;;;;;;6.72;4.68;;;;;;;7.13;50.33;102292.19;5056595;28;20060;-83
2023/11/22 02:54:35;;;;;;;7.60;4.90;;;;;;;7.13;50.55;102297.66;5076384;28;20040;-85
2023/11/22 02:57:03;;;;;;;7.05;4.45;;;;;;;7.12;50.22;102290.44;5077456;28;20048;-84
2023/11/22 02:59:32;;;;;;;6.07;4.28;;;;;;;7.12;50.02;102295.88;5073861;28;20036;-86
2023/11/22 03:02:01;;;;;;;7.68;5.20;;;;;;;7.09;50.12;102296.94;5075555;28;20048;-85
2023/11/22 03:04:29;;;;;;;6.07;4.63;;;;;;;7.07;49.96;102293.41;5058530;28;20036;-84
2023/11/22 03:06:57;;;;;;;8.52;5.25;;;;;;;7.07;49.88;102308.84;5057533;28;20094;-86
2023/11/22 03:09:26;;;;;;;7.40;5.20;;;;;;;7.04;49.76;102307.16;5053036;28;20102;-85
2023/11/22 03:11:54;;;;;;;6.93;4.65;;;;;;;7.04;49.82;102315.31;5067460;28;20029;-85
2023/11/22 03:14:23;;;;;;;6.80;4.88;;;;;;;7.04;50.05;102330.78;5073022;28;20043;-85
2023/11/22 03:16:53;;;;;;;8.82;5.00;;;;;;;7.04;50.17;102334.38;5071029;28;20037;-86
2023/11/22 03:19:21;;;;;;;8.43;5.50;;;;;;;6.99;50.07;102338.28;5054002;28;20075;-84
2023/11/22 03:21:49;;;;;;;8.52;5.20;;;;;;;6.98;49.84;102337.41;5067409;28;20045;-84
2023/11/22 03:24:17;;;;;;;8.13;5.43;;;;;;;6.97;50.24;102345.66;5059024;28;20044;-84
2023/11/22 03:26:45;;;;;;;10.32;5.80;;;;;;;6.96;50.07;102336.59;5080363;28;20052;-83
2023/11/22 03:29:16;;;;;;;8.68;5.50;;;;;;;6.94;49.81;102345.81;5049036;28;20043;-83
2023/11/22 03:31:44;;;;;;;9.70;5.60;;;;;;;6.93;49.81;102349.50;5070291;28;20047;-83
2023/11/22 03:34:15;;;;;;;8.88;5.68;;;;;;;6.91;49.76;102349.56;5074806;28;20100;-83
2023/11/22 03:36:43;;;;;;;7.63;5.05;;;;;;;6.87;49.78;102342.47;5072016;28;20044;-84
2023/11/22 03:39:11;;;;;;;8.15;5.80;;;;;;;6.88;49.91;102346.09;5074562;28;20048;-84
2023/11/22 03:41:39;;;;;;;8.57;5.60;;;;;;;6.84;49.79;102342.66;5073140;28;20094;-84
2023/11/22 03:44:08;;;;;;;8.27;5.10;;;;;;;6.85;49.85;102340.81;5054668;28;20098;-84
2023/11/22 03:46:37;;;;;;;8.27;5.28;;;;;;;6.84;49.90;102355.38;5064695;28;20050;-86
2023/11/22 03:49:06;;;;;;;8.82;4.75;;;;;;;6.81;49.99;102351.84;5051916;28;20040;-85
2023/11/22 03:51:36;;;;;;;8.73;5.30;;;;;;;6.82;49.95;102356.31;5056304;28;20520;-86
2023/11/22 03:54:04;;;;;;;6.78;4.55;;;;;;;6.80;50.14;102354.63;5072926;28;20045;-86
2023/11/22 03:56:33;;;;;;;7.47;4.78;;;;;;;6.76;50.20;102359.34;5058830;28;20045;-86
2023/11/22 03:59:01;;;;;;;8.38;5.50;;;;;;;6.78;50.17;102373.75;5069052;28;20044;-86
2023/11/22 04:01:29;;;;;;;9.18;5.78;;;;;;;6.73;49.97;102364.88;5070651;28;20036;-86
2023/11/22 04:03:57;;;;;;;7.15;5.07;;;;;;;6.72;49.96;102368.56;5055423;28;20109;-85
2023/11/22 04:06:26;;;;;;;9.00;5.60;;;;;;;6.72;49.67;102364.97;5041644;28;20045;-85
2023/11/22 04:08:55;;;;;;;8.98;5.32;;;;;;;6.71;49.69;102366.78;5073996;28;20112;-86
2023/11/22 04:11:23;;;;;;;7.85;5.15;;;;;;;6.65;49.67;102369.81;5051452;28;20045;-85
2023/11/22 04:13:52;;;;;;;8.07;5.10;;;;;;;6.66;50.00;102390.63;5074405;28;20096;-84
2023/11/22 04:16:21;;;;;;;8.18;5.10;;;;;;;6.65;49.99;102377.09;5073952;28;20284;-84
2023/11/22 04:18:49;;;;;;;9.75;5.65;;;;;;;6.63;49.95;102376.28;5059705;28;20064;-83
2023/11/22 04:21:18;;;;;;;8.40;5.93;;;;;;;6.60;49.86;102382.75;5086343;28;20044;-83
2023/11/22 04:23:49;;;;;;;10.70;5.72;;;;;;;6.59;49.80;102389.16;5075921;28;20040;-83
2023/11/22 04:26:20;;;;;;;8.80;5.90;;;;;;;6.59;49.63;102402.75;5072087;28;20044;-83
2023/11/22 04:28:48;;;;;;;8.38;5.47;;;;;;;6.58;49.95;102413.69;5054139;28;20040;-83
2023/11/22 04:31:16;;;;;;;9.07;5.88;;;;;;;6.57;50.24;102409.22;5054824;28;20130;-83
2023/11/22 04:33:44;;;;;;;8.43;5.85;;;;;;;6.55;50.16;102414.72;5071405;28;20044;-83
2023/11/22 04:36:12;;;;;;;7.85;5.57;;;;;;;6.54;50.13;102415.66;5054565;28;20094;-84
2023/11/22 04:38:40;;;;;;;8.98;6.00;;;;;;;6.53;49.93;102416.63;5070199;28;20040;-83
2023/11/22 04:41:08;;;;;;;10.32;6.10;;;;;;;6.52;49.90;102420.31;5072113;28;20040;-84
2023/11/22 04:43:38;;;;;;;8.52;6.05;;;;;;;6.53;49.65;102415.75;5072149;28;20124;-83
2023/11/22 04:46:06;;;;;;;8.38;5.50;;;;;;;6.51;49.86;102417.66;5055076;28;20044;-83
2023/11/22 04:48:34;;;;;;;9.32;6.05;;;;;;;6.49;49.90;102414.13;5062220;28;20450;-83
2023/11/22 04:51:02;;;;;;;9.07;6.20;;;;;;;6.49;49.71;102419.56;5059840;28;20053;-83
2023/11/22 04:53:30;;;;;;;9.52;6.40;;;;;;;6.47;49.93;102402.41;5064204;28;20033;-84
2023/11/22 04:55:59;;;;;;;9.70;6.22;;;;;;;6.47;49.86;102399.69;5054755;28;20045;-84
2023/11/22 04:58:27;;;;;;;9.70;6.07;;;;;;;6.44;49.85;102404.34;5071065;28;20064;-83
2023/11/22 05:00:58;;;;;;;9.07;6.20;;;;;;;6.44;49.90;102406.19;5071462;28;20049;-83
2023/11/22 05:03:26;;;;;;;9.05;5.68;;;;;;;6.43;49.82;102407.13;5073864;28;20047;-86
2023/11/22 05:05:54;;;;;;;9.25;6.20;;;;;;;6.41;50.03;102409.91;5083919;28;20093;-84
2023/11/22 05:08:22;;;;;;;8.75;6.38;;;;;;;6.41;49.70;102409.03;5060356;28;20106;-84
2023/11/22 05:10:50;;;;;;;9.35;5.72;;;;;;;6.40;50.00;102415.41;5082618;28;20067;-85
2023/11/22 05:13:21;;;;;;;11.18;6.78;;;;;;;6.39;50.05;102413.66;5082013;28;20044;-86
2023/11/22 05:15:49;;;;;;;11.80;6.93;;;;;;;6.35;49.72;102415.66;5060180;28;20101;-84
2023/11/22 05:18:19;;;;;;;10.63;7.15;;;;;;;6.37;49.58;102421.00;5074786;28;20048;-84
2023/11/22 05:20:48;;;;;;;9.88;6.95;;;;;;;6.32;49.55;102415.78;5071116;28;20100;-85
2023/11/22 05:23:16;;;;;;;10.30;6.70;;;;;;;6.32;49.94;102432.09;5055404;28;20119;-86
2023/11/22 05:25:44;;;;;;;9.57;6.93;;;;;;;6.30;49.63;102441.25;5074064;28;20040;-85
2023/11/22 05:28:13;;;;;;;9.90;6.85;;;;;;;6.27;49.93;102444.13;5076053;28;20036;-85
2023/11/22 05:30:40;;;;;;;9.30;5.88;;;;;;;6.28;49.58;102444.03;5076826;28;20071;-85
2023/11/22 05:33:08;;;;;;;9.05;6.18;;;;;;;6.25;50.04;102436.03;5059645;28;20087;-84
2023/11/22 05:35:38;;;;;;;9.93;6.47;;;;;;;6.28;49.80;102464.94;5080073;28;20033;-85
2023/11/22 05:38:06;;;;;;;11.25;6.65;;;;;;;6.25;49.65;102465.94;5076897;28;20045;-84
2023/11/22 05:40:34;;;;;;;8.60;6.22;;;;;;;6.24;49.88;102461.44;5076002;28;20368;-83
2023/11/22 05:43:02;;;;;;;9.18;5.97;;;;;;;6.23;49.55;102465.13;5075300;28;20037;-84
2023/11/22 05:45:30;;;;;;;10.07;6.18;;;;;;;6.20;49.72;102467.09;5058263;28;20049;-84
2023/11/22 05:47:58;;;;;;;11.13;6.63;;;;;;;6.22;49.65;102470.63;5072329;28;20037;-83
2023/11/22 05:50:26;;;;;;;9.75;6.45;;;;;;;6.19;49.92;102470.78;5070531;28;20129;-85
2023/11/22 05:52:56;;;;;;;9.00;6.40;;;;;;;6.19;49.53;102468.94;5054312;28;20048;-85
2023/11/22 05:55:24;;;;;;;9.68;6.75;;;;;;;6.19;49.67;102468.06;5079036;28;20048;-83
2023/11/22 05:57:52;;;;;;;9.07;6.15;;;;;;;6.19;49.60;102478.94;5083038;28;20044;-83
2023/11/22 06:00:20;;;;;;;9.73;6.70;;;;;;;6.18;49.99;102479.88;5094368;28;20032;-83
2023/11/22 06:02:49;;;;;;;9.25;6.30;;;;;;;6.17;49.56;102478.09;5075841;28;20044;-84
2023/11/22 06:05:17;;;;;;;12.20;6.40;;;;;;;6.15;49.80;102480.88;5054296;28;20048;-85
2023/11/22 06:07:45;;;;;;;8.65;5.80;;;;;;;6.15;49.73;102467.28;5072458;28;20078;-85
2023/11/22 06:10:15;;;;;;;9.10;6.35;;;;;;;6.17;49.59;102475.38;5051476;28;20041;-85
2023/11/22 06:12:44;;;;;;;9.85;6.28;;;;;;;6.17;49.75;102479.00;5071437;28;20052;-85
2023/11/22 06:15:12;;;;;;;8.55;6.25;;;;;;;6.16;49.51;102471.78;5054309;28;20085;-84
2023/11/22 06:17:40;;;;;;;9.70;6.18;;;;;;;6.16;49.51;102476.34;5055485;28;20033;-85
2023/11/22 06:20:11;;;;;;;9.52;6.20;;;;;;;6.14;49.36;102460.09;5074318;28;20032;-84
2023/11/22 06:22:40;;;;;;;9.40;6.28;;;;;;;6.14;49.39;102470.94;5058365;28;20872;-85
2023/11/22 06:25:10;;;;;;;9.35;6.10;;;;;;;6.14;49.58;102473.66;5069968;28;20044;-85
2023/11/22 06:27:41;;;;;;;8.70;5.65;;;;;;;6.13;49.42;102481.88;5049555;28;20139;-85
2023/11/22 06:30:09;;;;;;;9.93;6.65;;;;;;;6.09;49.40;102486.59;5071180;28;20059;-84
2023/11/22 06:32:37;;;;;;;9.85;6.88;;;;;;;6.11;49.11;102484.69;5054781;28;20043;-85
2023/11/22 06:35:08;;;;;;;10.55;6.30;;;;;;;6.09;49.26;102489.31;5070590;28;20071;-85
2023/11/22 06:37:36;;;;;;;10.20;6.40;;;;;;;6.07;49.33;102489.38;5073331;28;20043;-84
2023/11/22 06:40:05;;;;;;;9.55;6.63;;;;;;;6.06;49.19;102498.47;5075088;28;20032;-84
2023/11/22 06:42:34;;;;;;;9.68;6.72;;;;;;;6.04;49.28;102494.03;5070059;28;20064;-83
2023/11/22 06:45:06;;;;;;;8.38;5.97;;;;;;;6.01;49.55;102494.19;5067072;28;20083;-82
2023/11/22 06:47:34;;;;;;;8.88;6.38;;;;;;;5.99;49.33;102504.22;5052922;28;20115;-82
2023/11/22 06:50:04;;;;;;;8.68;5.68;;;;;;;6.01;49.23;102513.22;5054683;28;20048;-82
2023/11/22 06:52:32;;;;;;;8.93;6.00;;;;;;;5.98;49.31;102513.34;5068669;28;20037;-81
2023/11/22 06:55:00;;;;;;;8.57;5.82;;;;;;;6.00;48.98;102506.00;5044255;28;20041;-80
2023/11/22 06:57:29;;;;;;;9.32;6.13;;;;;;;5.99;49.39;102509.66;5062622;28;20044;-82
2023/11/22 06:59:59;;;;;;;7.95;5.43;;;;;;;5.98;49.38;102507.91;5069503;28;20561;-82
2023/11/22 07:02:40;;;;;;;10.45;6.28;;;;;;;5.98;48.99;102506.06;5070177;28;20508;-83
2023/11/22 07:05:13;;;;;;;10.13;6.10;;;;;;;5.92;49.20;102503.63;5054455;28;20047;-84
2023/11/22 07:07:42;;;;;;;9.48;6.15;;;;;;;5.95;49.06;102513.47;5069784;28;20570;-83
2023/11/22 07:10:11;;;;;;;10.35;6.80;;;;;;;5.93;49.13;102515.38;5071015;28;20040;-83
2023/11/22 07:12:39;;;;;;;9.55;6.10;;;;;;;5.90;49.33;102518.19;5069666;28;20040;-83
2023/11/22 07:15:09;;;;;;;10.85;6.07;;;;;;;5.88;49.41;102522.81;5074081;28;20049;-83
2023/11/22 07:17:39;;;;;;;9.52;6.13;;;;;;;5.87;49.38;102532.78;5062534;28;20032;-83
2023/11/22 07:20:09;;;;;;;10.30;5.97;;;;;;;5.87;48.96;102531.94;5053794;28;20041;-83
2023/11/22 07:22:37;;;;;;;9.48;5.95;;;;;;;5.86;49.20;102535.59;5055320;28;20041;-82
2023/11/22 07:25:07;;;;;;;10.63;6.95;;;;;;;5.87;49.34;102534.66;5071096;28;20120;-83
2023/11/22 07:27:35;;;;;;;10.18;6.40;;;;;;;5.86;49.29;102551.91;5068658;28;20040;-84
2023/11/22 07:30:03;;;;;;;8.93;5.70;;;;;;;5.85;49.41;102559.16;5062092;28;20504;-83
2023/11/22 07:32:31;;;;;;;10.98;6.05;;;;;;;5.84;49.22;102557.41;5057229;28;20596;-83
2023/11/22 07:35:03;;;;;;;8.88;5.88;;;;;;;5.85;49.29;102569.16;5056093;28;20125;-82
2023/11/22 07:37:32;;;;;;;8.93;5.55;;;;;;;5.83;49.32;102584.63;5080826;28;20070;-82
2023/11/22 07:40:00;;;;;;;8.95;5.13;;;;;;;5.83;49.18;102590.94;5052786;28;20036;-83
2023/11/22 07:42:28;;;;;;;8.63;5.28;;;;;;;5.82;49.25;102585.56;5073149;28;20036;-82
2023/11/22 07:44:56;;;;;;;9.48;5.43;;;;;;;5.82;49.25;102583.72;5070755;28;20036;-82
2023/11/22 07:47:26;;;;;;;8.32;5.18;;;;;;;5.83;49.30;102580.06;5068585;28;20083;-82
2023/11/22 07:49:55;;;;;;;8.63;5.40;;;;;;;5.82;49.10;102574.69;5070730;28;20090;-81
2023/11/22 07:52:29;;;;;;;7.68;5.35;;;;;;;5.82;48.94;102564.72;5069030;28;20059;-82
2023/11/22 07:54:58;;;;;;;8.35;5.50;;;;;;;5.79;49.04;102570.25;5071507;28;20068;-83
2023/11/22 07:57:27;;;;;;;9.32;5.88;;;;;;;5.76;48.85;102575.84;5054159;28;20076;-84
2023/11/22 07:59:55;;;;;;;9.60;5.70;;;;;;;5.75;49.27;102568.63;5070956;28;20051;-82
2023/11/22 08:02:23;;;;;;;9.18;5.93;;;;;;;5.74;49.00;102556.00;5057608;28;20044;-83
2023/11/22 08:04:52;;;;;;;9.15;6.28;;;;;;;5.70;49.46;102557.06;5066864;28;20040;-83
2023/11/22 08:07:21;;;;;;;8.45;5.43;;;;;;;5.72;49.09;102557.88;5070718;28;20685;-84
2023/11/22 08:09:51;;;;;;;8.63;5.78;;;;;;;5.71;49.29;102555.25;5078803;28;20045;-85
2023/11/22 08:12:19;;;;;;;8.73;5.68;;;;;;;5.68;49.16;102548.09;5074823;28;20508;-85
2023/11/22 08:14:47;;;;;;;9.13;6.07;;;;;;;5.67;49.27;102533.63;5072964;28;20067;-82
2023/11/22 08:17:15;;;;;;;9.07;5.68;;;;;;;5.66;49.35;102542.72;5056811;28;20452;-83
2023/11/22 08:19:43;;;;;;;10.25;6.05;;;;;;;5.67;49.34;102541.78;5073337;28;20051;-83
2023/11/22 08:22:11;;;;;;;9.13;5.72;;;;;;;5.67;49.11;102544.50;5069128;28;20516;-84
2023/11/22 08:24:38;;;;;;;8.27;5.40;;;;;;;5.67;49.77;102546.31;5072548;28;20044;-85
2023/11/22 08:27:08;;;;;;;10.02;6.10;;;;;;;5.69;49.45;102541.72;5075159;28;20098;-84
2023/11/22 08:29:36;;;;;;;8.73;5.40;;;;;;;5.68;49.18;102548.97;5068896;28;20036;-84
2023/11/22 08:32:06;;;;;;;9.60;6.00;;;;;;;5.68;49.53;102553.53;5055076;28;20520;-84
2023/11/22 08:34:34;;;;;;;10.18;6.00;;;;;;;5.67;49.41;102557.19;5075648;28;20045;-85
2023/11/22 08:37:06;;;;;;;9.70;5.65;;;;;;;5.70;49.50;102562.50;5082945;28;20040;-85
2023/11/22 08:39:34;;;;;;;10.02;5.97;;;;;;;5.68;49.40;102562.56;5074163;28;20496;-84
2023/11/22 08:42:03;;;;;;;8.98;5.60;;;;;;;5.67;49.16;102560.78;5055200;28;20056;-83
2023/11/22 08:44:34;;;;;;;8.57;5.55;;;;;;;5.68;49.03;102567.13;5054657;28;20083;-82
2023/11/22 08:47:03;;;;;;;8.55;5.63;;;;;;;5.69;49.56;102590.63;5062944;28;20044;-83
2023/11/22 08:49:31;;;;;;;9.25;6.10;;;;;;;5.69;49.09;102598.78;5069314;28;20219;-82
2023/11/22 08:52:00;;;;;;;9.27;5.85;;;;;;;5.70;49.66;102607.81;5056392;28;20040;-81
2023/11/22 08:54:29;;;;;;;10.43;6.18;;;;;;;5.70;49.56;102622.28;5075610;28;20102;-83
2023/11/22 08:57:00;;;;;;;9.20;5.63;;;;;;;5.74;49.37;102633.88;5059877;28;20395;-83
2023/11/22 08:59:28;;;;;;;7.85;5.43;;;;;;;5.73;49.39;102632.13;5067739;28;20037;-83
2023/11/22 09:01:57;;;;;;;8.85;6.05;;;;;;;5.77;49.67;102631.94;5083238;28;20044;-83
2023/11/22 09:04:26;;;;;;;10.70;6.22;;;;;;;5.78;49.84;102647.31;5078114;28;20090;-83
2023/11/22 09:06:56;;;;;;;10.88;6.55;;;;;;;5.82;49.35;102648.06;5072969;28;20087;-82
2023/11/22 09:09:30;;;;;;;9.20;5.72;;;;;;;5.84;49.67;102644.34;5054320;28;20060;-83
2023/11/22 09:11:59;;;;;;;9.25;5.80;;;;;;;5.87;49.63;102638.75;5061070;28;20037;-82
2023/11/22 09:14:28;;;;;;;8.45;5.68;;;;;;;5.91;49.73;102625.97;5083680;28;20076;-82
2023/11/22 09:16:57;;;;;;;9.00;5.28;;;;;;;5.94;49.45;102624.00;5075721;28;20096;-81
2023/11/22 09:19:26;;;;;;;8.75;5.28;;;;;;;5.99;49.88;102626.53;5067662;28;20040;-82
2023/11/22 09:21:53;;;;;;;10.10;5.63;;;;;;;6.02;49.31;102618.28;5069564;28;20040;-82
2023/11/22 09:24:21;;;;;;;7.90;5.55;;;;;;;6.06;49.54;102622.63;5076376;28;20102;-83
2023/11/22 09:26:50;;;;;;;9.05;5.35;;;;;;;6.14;49.65;102625.00;5072484;28;20095;-84
2023/11/22 09:29:18;;;;;;;7.88;5.30;;;;;;;6.19;49.63;102614.84;5071852;28;20052;-84
2023/11/22 09:31:46;;;;;;;8.13;5.00;;;;;;;6.24;49.33;102611.00;5056835;28;20625;-85
2023/11/22 09:34:16;;;;;;;7.88;4.80;;;;;;;6.32;49.54;102618.81;5053682;28;20052;-82
2023/11/22 09:36:44;;;;;;;9.15;5.28;;;;;;;6.35;49.56;102610.53;5062272;28;20048;-83
2023/11/22 09:39:12;;;;;;;7.43;4.60;;;;;;;6.43;49.22;102605.66;5072467;28;20055;-84
2023/11/22 09:41:40;;;;;;;8.60;4.60;;;;;;;6.49;48.90;102599.97;5070889;28;20090;-84
2023/11/22 09:44:10;;;;;;;5.90;4.45;;;;;;;6.54;48.54;102591.59;5071030;28;20040;-86
2023/11/22 09:46:41;;;;;;;5.72;3.67;;;;;;;6.58;48.47;102585.06;5080840;28;20493;-82
2023/11/22 09:49:22;;;;;;;7.43;3.95;;;;;;;6.66;47.14;102594.69;5074946;28;20128;-84
2023/11/22 09:51:52;;;;;;;6.90;4.10;;;;;;;6.69;47.97;102594.56;5061477;28;20040;-84
2023/11/22 09:54:33;;;;;;;5.55;3.80;;;;;;;6.74;48.30;102600.69;5073999;28;20052;-83
2023/11/22 09:57:08;;;;;;;6.22;3.45;;;;;;;6.77;47.70;102606.03;5041055;28;20096;-84
2023/11/22 09:59:40;;;;;;;4.38;2.85;;;;;;;6.82;47.48;102603.09;5053967;28;20131;-84
2023/11/22 10:02:10;;;;;;;5.15;2.50;;;;;;;6.84;46.91;102617.50;5049942;28;20037;-82
2023/11/22 10:04:40;;;;;;;4.45;2.75;;;;;;;6.89;46.77;102611.84;5057080;28;20049;-85
2023/11/22 10:07:10;;;;;;;4.45;2.75;;;;;;;6.90;46.89;102610.91;5050411;28;20068;-83
2023/11/22 10:09:41;;;;;;;5.82;3.08;;;;;;;6.92;46.75;102601.72;5083749;28;20037;-84
2023/11/22 10:12:10;;;;;;;4.35;2.60;;;;;;;6.94;46.61;102613.41;5062973;28;20052;-83
2023/11/22 10:14:38;;;;;;;6.35;3.03;;;;;;;6.96;46.18;102605.19;5062299;28;20051;-84
2023/11/22 10:17:08;;;;;;;4.95;3.10;;;;;;;6.98;46.32;102612.34;5069088;28;20301;-84
2023/11/22 10:19:36;;;;;;;5.63;3.20;;;;;;;7.02;46.25;102605.81;5051547;28;20397;-85
2023/11/22 10:22:06;;;;;;;5.45;3.17;;;;;;;7.04;45.83;102603.88;5083556;28;20052;-85
2023/11/22 10:24:36;;;;;;;4.80;2.75;;;;;;;7.04;46.02;102605.72;5076843;28;20041;-84
2023/11/22 10:27:05;;;;;;;5.78;3.58;;;;;;;7.05;45.80;102600.22;5062715;28;20057;-85
2023/11/22 10:29:36;;;;;;;4.70;2.67;;;;;;;7.04;45.75;102603.88;5061342;28;20048;-85
2023/11/22 10:32:05;;;;;;;4.97;3.08;;;;;;;7.05;45.19;102604.75;5073570;28;20048;-85
2023/11/22 10:34:33;;;;;;;5.88;2.88;;;;;;;7.06;45.14;102607.44;5075796;28;20040;-85
2023/11/22 10:37:04;;;;;;;6.47;3.17;;;;;;;7.07;44.44;102608.31;5075184;28;20040;-86
2023/11/22 10:39:33;;;;;;;5.20;2.85;;;;;;;7.09;44.84;102606.41;5066789;28;20121;-84
2023/11/22 10:42:06;;;;;;;5.63;2.80;;;;;;;7.07;44.81;102600.16;5047054;28;20060;-84
2023/11/22 10:44:38;;;;;;;4.97;3.08;;;;;;;7.08;45.27;102608.25;5053274;28;20048;-85
2023/11/22 10:47:09;;;;;;;5.15;2.90;;;;;;;7.11;44.73;102615.38;5070747;28;20432;-86
2023/11/22 10:49:37;;;;;;;5.78;2.90;;;;;;;7.12;45.13;102612.59;5076523;28;20048;-84
2023/11/22 10:52:11;;;;;;;6.90;3.13;;;;;;;7.15;44.08;102608.84;5074394;28;20120;-84
2023/11/22 10:54:50;;;;;;;5.53;3.10;;;;;;;7.17;43.53;102615.13;5094057;28;20052;-83
2023/11/22 10:57:24;;;;;;;5.20;3.00;;;;;;;7.17;44.85;102618.72;5061449;28;20049;-86
2023/11/22 10:59:55;;;;;;;5.68;2.88;;;;;;;7.19;44.13;102605.00;5072882;28;20415;-86
2023/11/22 11:02:25;;;;;;;4.75;2.90;;;;;;;7.17;44.87;102618.72;5068840;28;20589;-84
2023/11/22 11:05:03;;;;;;;5.20;3.05;;;;;;;7.20;43.70;102624.00;5073219;28;20056;-83
2023/11/22 11:07:34;;;;;;;4.53;2.70;;;;;;;7.21;44.51;102630.34;5056359;28;20043;-83
2023/11/22 11:10:07;;;;;;;4.47;3.00;;;;;;;7.20;44.20;102604.94;5056116;28;20093;-83
2023/11/22 11:12:47;;;;;;;4.05;2.58;;;;;;;7.17;44.39;102599.66;5080705;28;20051;-84
2023/11/22 11:15:17;;;;;;;5.60;2.63;;;;;;;7.22;44.51;102606.72;5073058;28;20040;-83
2023/11/22 11:17:47;;;;;;;4.68;2.80;;;;;;;7.24;44.39;102597.53;5073257;28;20467;-83
2023/11/22 11:20:18;;;;;;;4.85;2.40;;;;;;;7.27;44.31;102600.09;5071961;28;20769;-85
2023/11/22 11:22:49;;;;;;;4.78;2.42;;;;;;;7.29;43.89;102597.31;5056290;28;20040;-84
2023/11/22 11:25:19;;;;;;;4.82;1.98;;;;;;;7.29;43.51;102591.88;5066382;28;20420;-84
2023/11/22 11:28:00;;;;;;;4.93;2.15;;;;;;;7.34;41.57;102590.72;5054681;28;20068;-85
2023/11/22 11:30:45;;;;;;;4.35;2.13;;;;;;;7.33;41.32;102572.59;5071406;28;20044;-86
2023/11/22 11:33:18;;;;;;;4.50;2.20;;;;;;;7.36;43.79;102580.63;5073015;28;20046;-86
2023/11/22 11:35:49;;;;;;;3.70;2.35;;;;;;;7.40;43.10;102581.38;5056560;28;20148;-84
2023/11/22 11:38:21;;;;;;;4.43;2.05;;;;;;;7.40;42.77;102565.91;5045223;28;20048;-84
2023/11/22 11:40:54;;;;;;;3.78;1.90;;;;;;;7.43;43.31;102563.06;5048781;28;20053;-86